Time;durP1;ratioP1;P1;durP2;ratioP2;P2;SDS_P1;SDS_P2;PMS_P1;PMS_P2;Temp;Humidity;BMP_temperature;BMP_pressure;BME280_temperature;BME280_humidity;BME280_pressure;Samples;Min_cycle;Max_cycle;Signal;HPM_P1;HPM_P2
2022/03/27 07:33:50;;;;;;;19.77;16.90;;;17.00;62.20;;;;;;5112724;27;20165;-69
2022/03/27 07:36:16;;;;;;;26.40;18.00;;;17.20;66.90;;;;;;5111960;28;20449;-71
2022/03/27 07:38:43;;;;;;;23.30;18.17;;;17.20;64.30;;;;;;5112074;28;20456;-68
2022/03/27 07:41:10;;;;;;;24.40;18.17;;;17.70;61.70;;;;;;5111793;28;21006;-68
2022/03/27 07:43:37;;;;;;;24.67;18.83;;;18.10;59.40;;;;;;5112073;28;20445;-67
2022/03/27 07:46:04;;;;;;;23.70;17.30;;;18.60;58.70;;;;;;5112027;28;20444;-67
2022/03/27 07:48:31;;;;;;;22.03;17.50;;;18.70;57.10;;;;;;5111974;28;20471;-68
2022/03/27 07:50:59;;;;;;;20.80;18.70;;;18.90;57.80;;;;;;5112047;28;20512;-69
2022/03/27 07:53:27;;;;;;;18.50;16.50;;;19.30;56.00;;;;;;5112038;28;20468;-70
2022/03/27 07:55:55;;;;;;;20.77;15.70;;;19.50;55.10;;;;;;5112896;28;20437;-70
2022/03/27 07:58:21;;;;;;;19.30;16.60;;;19.60;55.30;;;;;;5111925;28;20453;-69
2022/03/27 08:00:48;;;;;;;22.40;15.83;;;20.40;54.90;;;;;;5111723;28;20472;-72
2022/03/27 08:03:15;;;;;;;20.20;16.20;;;20.90;53.30;;;;;;5112150;28;20860;-70
2022/03/27 08:05:43;;;;;;;17.53;14.70;;;21.40;52.70;;;;;;5111861;28;20448;-69
2022/03/27 08:08:11;;;;;;;25.70;15.70;;;21.70;50.70;;;;;;5119323;28;20449;-69
2022/03/27 08:10:37;;;;;;;24.17;16.23;;;21.40;50.90;;;;;;5132545;28;20465;-69
2022/03/27 08:13:04;;;;;;;17.80;14.90;;;21.50;50.80;;;;;;5133507;28;20488;-69
2022/03/27 08:15:31;;;;;;;17.00;14.90;;;21.90;51.00;;;;;;5121798;28;20454;-69
2022/03/27 08:17:58;;;;;;;22.33;16.37;;;22.40;50.10;;;;;;5111194;28;20479;-69
2022/03/27 08:20:26;;;;;;;19.23;17.13;;;22.90;51.30;;;;;;5110625;28;20939;-70
2022/03/27 08:22:52;;;;;;;20.70;15.83;;;23.70;49.90;;;;;;5111100;28;20452;-69
2022/03/27 08:28:07;;;;;;;26.03;18.57;;;24.80;48.70;;;;;;5110976;28;20993;-70
2022/03/27 08:30:34;;;;;;;16.83;14.97;;;24.20;47.20;;;;;;5110764;28;20823;-69
2022/03/27 08:33:01;;;;;;;18.07;14.77;;;23.90;47.40;;;;;;5124616;28;20472;-70
2022/03/27 08:35:28;;;;;;;20.73;15.90;;;23.80;47.70;;;;;;5131599;28;20469;-69
2022/03/27 08:37:54;;;;;;;20.93;18.90;;;23.70;49.20;;;;;;5131067;28;20451;-69
2022/03/27 08:40:22;;;;;;;18.13;16.13;;;23.10;47.90;;;;;;5130927;28;20444;-70
2022/03/27 08:42:50;;;;;;;20.63;15.77;;;23.30;48.30;;;;;;5130728;28;20937;-69
2022/03/27 08:45:17;;;;;;;20.70;15.20;;;23.70;48.00;;;;;;5116836;28;20452;-70
2022/03/27 08:47:44;;;;;;;17.00;15.30;;;24.30;47.30;;;;;;5117310;28;20449;-70
2022/03/27 08:50:20;;;;;;;18.00;15.53;;;24.70;47.90;;;;;;5117112;28;20454;-70
2022/03/27 08:52:57;;;;;;;20.10;15.20;;;24.90;46.70;;;;;;5117182;28;20518;-70
2022/03/27 08:55:39;;;;;;;19.37;16.03;;;24.50;45.80;;;;;;5117233;28;20452;-69
2022/03/27 08:58:09;;;;;;;15.47;13.97;;;24.90;47.50;;;;;;5116701;28;20912;-72
2022/03/27 09:00:36;;;;;;;19.00;15.50;;;24.90;46.20;;;;;;5117383;28;20523;-70
2022/03/27 09:03:05;;;;;;;16.90;15.20;;;25.40;46.40;;;;;;5117048;28;20451;-70
2022/03/27 09:05:35;;;;;;;16.23;14.63;;;25.80;45.70;;;;;;5116781;28;20452;-71
2022/03/27 09:08:07;;;;;;;17.73;15.90;;;25.50;45.10;;;;;;5116582;28;20455;-71
2022/03/27 09:10:35;;;;;;;18.60;15.37;;;25.60;46.00;;;;;;5116489;28;20550;-71
2022/03/27 09:13:03;;;;;;;18.23;16.33;;;25.90;46.40;;;;;;5116605;28;20472;-72
2022/03/27 09:15:30;;;;;;;17.97;15.90;;;26.60;47.00;;;;;;5117301;28;20459;-71
2022/03/27 09:18:00;;;;;;;17.80;16.07;;;27.10;44.90;;;;;;5116859;28;20436;-72
2022/03/27 09:20:38;;;;;;;17.00;14.80;;;27.70;45.40;;;;;;5116632;28;20452;-72
2022/03/27 09:23:23;;;;;;;18.60;15.60;;;27.20;44.00;;;;;;5116822;28;20429;-71
2022/03/27 09:25:56;;;;;;;17.83;15.97;;;26.80;45.60;;;;;;5117459;28;20440;-71
2022/03/27 09:28:33;;;;;;;17.47;15.57;;;26.50;45.00;;;;;;5116702;28;20442;-73
2022/03/27 09:31:01;;;;;;;18.40;16.20;;;26.50;44.40;;;;;;5116898;28;20796;-74
2022/03/27 09:33:50;;;;;;;17.20;14.83;;;26.20;43.50;;;;;;5115944;28;20487;-73
2022/03/27 09:36:22;;;;;;;25.03;15.57;;;25.80;45.40;;;;;;5113103;28;20445;-73
2022/03/27 09:39:01;;;;;;;18.53;16.67;;;26.30;45.90;;;;;;5116393;28;20448;-74
2022/03/27 09:41:35;;;;;;;22.60;16.60;;;27.30;43.70;;;;;;5116097;28;20982;-73
2022/03/27 09:44:05;;;;;;;18.10;16.20;;;28.10;43.50;;;;;;5117018;28;20433;-73
2022/03/27 09:46:50;;;;;;;17.10;15.40;;;28.10;44.40;;;;;;5116271;28;20453;-73
2022/03/27 09:49:18;;;;;;;17.57;15.70;;;27.30;43.90;;;;;;5116955;27;20425;-73
2022/03/27 09:51:52;;;;;;;16.80;14.03;;;27.40;43.60;;;;;;5115823;28;20475;-73
2022/03/27 09:54:18;;;;;;;18.00;14.63;;;28.20;43.80;;;;;;5115745;28;20492;-74
2022/03/27 09:56:46;;;;;;;17.00;15.40;;;28.50;42.50;;;;;;5114788;28;20464;-74
2022/03/27 09:59:30;;;;;;;16.90;14.70;;;29.00;43.90;;;;;;5115763;28;20459;-70
2022/03/27 10:02:20;;;;;;;20.03;16.27;;;29.20;41.50;;;;;;5115835;28;20498;-70
2022/03/27 10:04:58;;;;;;;17.00;15.27;;;29.10;41.90;;;;;;5115625;28;20433;-71
2022/03/27 10:07:26;;;;;;;18.77;16.77;;;29.40;41.80;;;;;;5115405;28;20460;-69
2022/03/27 10:09:53;;;;;;;17.33;15.60;;;29.20;41.30;;;;;;5115358;28;20459;-71
2022/03/27 10:12:27;;;;;;;18.93;17.13;;;28.90;41.10;;;;;;5115134;28;20468;-71
2022/03/27 10:14:59;;;;;;;19.50;16.20;;;28.70;39.60;;;;;;5115439;28;20444;-70
2022/03/27 10:17:27;;;;;;;18.40;16.67;;;28.50;43.00;;;;;;5115275;28;20807;-71
2022/03/27 10:19:57;;;;;;;19.47;16.40;;;28.60;42.20;;;;;;5115004;28;20480;-70
2022/03/27 10:22:26;;;;;;;18.83;16.47;;;28.20;41.70;;;;;;5114837;28;20479;-70
2022/03/27 10:24:56;;;;;;;20.80;17.40;;;28.50;43.30;;;;;;5115163;28;20456;-70
2022/03/27 10:27:25;;;;;;;27.27;16.53;;;28.90;40.80;;;;;;5114825;28;20843;-70
2022/03/27 10:29:53;;;;;;;23.40;17.67;;;28.70;41.30;;;;;;5114924;28;21021;-71
2022/03/27 10:32:21;;;;;;;20.87;17.53;;;28.70;41.80;;;;;;5114839;28;20490;-70
2022/03/27 10:34:59;;;;;;;19.40;17.37;;;28.30;41.90;;;;;;5115158;28;20449;-70
2022/03/27 10:37:33;;;;;;;21.43;16.50;;;28.40;43.20;;;;;;5114708;27;20468;-70
2022/03/27 10:40:06;;;;;;;23.97;17.10;;;28.40;43.30;;;;;;5114889;28;20788;-70
2022/03/27 10:42:45;;;;;;;17.60;15.80;;;28.50;42.20;;;;;;5115042;28;20504;-71
2022/03/27 10:45:17;;;;;;;18.70;16.70;;;28.20;41.20;;;;;;5114949;28;20433;-70
2022/03/27 10:48:05;;;;;;;18.77;16.00;;;28.60;41.50;;;;;;5114816;28;20803;-70
2022/03/27 10:50:31;;;;;;;19.10;17.10;;;28.30;42.00;;;;;;5114517;28;20448;-70
2022/03/27 10:53:09;;;;;;;19.93;17.83;;;27.80;41.70;;;;;;5114823;28;20994;-70
2022/03/27 10:55:38;;;;;;;27.90;17.40;;;26.70;42.30;;;;;;5114858;28;20440;-70
2022/03/27 10:58:34;;;;;;;20.30;18.20;;;26.50;41.80;;;;;;5115072;28;20452;-70
2022/03/27 11:01:04;;;;;;;20.73;16.80;;;26.80;47.00;;;;;;5114661;28;20484;-70
2022/03/27 11:03:52;;;;;;;22.70;19.17;;;26.80;43.90;;;;;;5114499;28;20444;-71
2022/03/27 11:06:23;;;;;;;20.37;16.47;;;26.90;45.90;;;;;;5114670;28;20903;-70
2022/03/27 11:08:52;;;;;;;23.40;17.40;;;26.90;41.80;;;;;;5125534;28;20448;-71
2022/03/27 11:11:50;;;;;;;19.90;17.05;;;26.80;45.50;;;;;;5126152;28;20496;-71
2022/03/27 11:14:44;;;;;;;23.60;18.25;;;26.70;45.90;;;;;;5130074;28;20598;-70
2022/03/27 11:17:13;;;;;;;20.53;17.00;;;26.50;44.10;;;;;;5118616;28;20204;-69
2022/03/27 11:19:42;;;;;;;17.73;15.87;;;26.20;45.00;;;;;;5115612;28;20487;-69
2022/03/27 11:22:51;;;;;;;19.87;15.87;;;26.00;45.70;;;;;;5114357;28;20975;-69
2022/03/27 11:25:47;;;;;;;19.33;15.50;;;25.80;45.10;;;;;;5114589;28;20460;-69
2022/03/27 11:28:15;;;;;;;21.50;17.25;;;25.30;44.40;;;;;;5114443;28;20432;-69
2022/03/27 11:31:23;;;;;;;22.53;17.30;;;25.10;43.90;;;;;;5114350;28;20464;-70
2022/03/27 11:34:18;;;;;;;22.70;16.53;;;24.60;45.30;;;;;;5114424;28;20472;-70
2022/03/27 11:36:48;;;;;;;20.53;16.10;;;24.30;46.40;;;;;;5115241;28;20436;-69
2022/03/27 11:39:33;;;;;;;17.97;15.60;;;23.90;46.60;;;;;;5114170;28;20534;-69
2022/03/27 11:42:25;;;;;;;19.90;15.80;;;23.70;47.90;;;;;;5114290;28;20477;-70
2022/03/27 11:45:18;;;;;;;22.47;14.17;;;23.60;48.10;;;;;;5103413;28;20543;-69
2022/03/27 11:47:47;;;;;;;17.20;13.53;;;23.40;45.30;;;;;;5114265;28;20433;-70
2022/03/27 11:50:28;;;;;;;21.10;15.63;;;23.50;46.00;;;;;;5114336;28;20450;-70
2022/03/27 11:52:55;;;;;;;16.50;12.77;;;23.20;45.10;;;;;;5114266;28;20440;-70
2022/03/27 11:55:22;;;;;;;17.40;13.00;;;23.00;46.90;;;;;;5114169;28;20796;-70
2022/03/27 11:57:51;;;;;;;20.30;13.60;;;22.90;46.90;;;;;;5114217;28;20449;-70
2022/03/27 12:00:30;;;;;;;16.43;11.53;;;23.20;46.30;;;;;;5113781;28;20946;-67
2022/03/27 12:02:59;;;;;;;21.90;11.83;;;23.40;45.70;;;;;;5113881;28;20436;-68
2022/03/27 12:05:34;;;;;;;19.20;14.03;;;23.40;45.40;;;;;;5113594;28;20474;-68
2022/03/27 12:08:02;;;;;;;14.03;11.53;;;23.50;47.00;;;;;;5113760;28;20519;-67
2022/03/27 12:10:31;;;;;;;14.50;12.00;;;23.60;48.10;;;;;;5113906;28;20449;-68
2022/03/27 12:12:59;;;;;;;16.00;12.50;;;23.70;47.10;;;;;;5113684;28;20505;-68
2022/03/27 12:15:37;;;;;;;14.03;10.77;;;23.90;45.50;;;;;;5113888;28;20452;-71
2022/03/27 12:18:05;;;;;;;12.73;11.43;;;24.20;47.50;;;;;;5113874;28;20452;-71
2022/03/27 12:20:45;;;;;;;16.00;11.70;;;24.30;44.00;;;;;;5117957;28;20452;-71
2022/03/27 12:23:22;;;;;;;19.00;12.40;;;24.30;44.70;;;;;;5117721;28;20437;-71
2022/03/27 12:26:03;;;;;;;15.23;12.87;;;24.50;43.00;;;;;;5118350;28;20435;-71
2022/03/27 12:31:23;;;;;;;14.00;10.10;;;24.50;42.70;;;;;;5117535;28;20447;-71
2022/03/27 12:33:52;;;;;;;16.67;11.00;;;24.50;45.20;;;;;;5116935;28;20982;-71
2022/03/27 12:36:19;;;;;;;13.67;11.60;;;24.50;44.30;;;;;;5117512;28;20463;-70
2022/03/27 12:38:47;;;;;;;14.70;12.33;;;24.70;44.90;;;;;;5117294;28;20448;-70
2022/03/27 12:41:14;;;;;;;19.50;11.40;;;24.80;42.60;;;;;;5117541;28;20479;-70
2022/03/27 12:43:56;;;;;;;13.87;9.50;;;24.80;46.10;;;;;;5117475;28;20455;-70
2022/03/27 12:46:24;;;;;;;11.37;10.00;;;25.00;39.40;;;;;;5117453;28;20792;-71
2022/03/27 12:49:03;;;;;;;14.20;9.27;;;25.10;42.00;;;;;;5117020;28;20448;-70
2022/03/27 12:51:30;;;;;;;10.73;9.47;;;25.10;41.70;;;;;;5117383;28;20513;-70
2022/03/27 12:54:02;;;;;;;11.73;10.53;;;25.10;43.50;;;;;;5117004;28;20483;-71
2022/03/27 12:56:30;;;;;;;13.73;10.00;;;25.20;41.00;;;;;;5117053;28;20448;-70
2022/03/27 12:58:57;;;;;;;13.80;10.70;;;25.30;42.30;;;;;;5117085;28;20456;-71
2022/03/27 13:01:25;;;;;;;10.13;9.10;;;25.20;42.70;;;;;;5116462;28;20998;-71
2022/03/27 13:04:04;;;;;;;15.60;11.00;;;25.00;42.90;;;;;;5116889;28;20943;-72
2022/03/27 13:06:36;;;;;;;15.67;9.30;;;24.90;43.00;;;;;;5116860;28;20815;-71
2022/03/27 13:09:04;;;;;;;13.83;10.47;;;25.00;43.20;;;;;;5116838;28;20506;-71
2022/03/27 13:11:38;;;;;;;14.00;9.57;;;25.10;40.50;;;;;;5116654;28;20511;-71
2022/03/27 13:14:05;;;;;;;13.87;9.60;;;25.10;40.80;;;;;;5116746;28;20526;-64
2022/03/27 13:16:33;;;;;;;11.70;9.93;;;25.00;38.60;;;;;;5116899;28;20850;-71
2022/03/27 13:19:03;;;;;;;11.97;9.97;;;24.90;41.40;;;;;;5116595;28;20440;-71
2022/03/27 13:21:32;;;;;;;15.73;11.30;;;24.70;37.60;;;;;;5116668;28;20479;-65
2022/03/27 13:23:59;;;;;;;16.13;9.83;;;24.70;38.40;;;;;;5116139;28;20969;-65
2022/03/27 13:26:26;;;;;;;10.67;9.57;;;24.70;39.00;;;;;;5116554;28;20479;-65
2022/03/27 13:28:53;;;;;;;13.93;10.23;;;24.70;40.30;;;;;;5116549;27;20440;-64
2022/03/27 13:31:21;;;;;;;14.37;11.37;;;24.70;40.90;;;;;;5116311;28;20482;-65
2022/03/27 13:33:49;;;;;;;16.23;10.10;;;24.80;38.90;;;;;;5116079;28;20479;-64
2022/03/27 13:36:17;;;;;;;13.60;10.83;;;24.80;42.20;;;;;;5116438;28;20481;-66
2022/03/27 13:38:44;;;;;;;14.40;9.77;;;24.90;37.90;;;;;;5116522;28;20449;-65
2022/03/27 13:43:58;;;;;;;13.10;9.13;;;25.00;38.00;;;;;;5089675;28;20477;-65
2022/03/27 13:46:25;;;;;;;13.07;9.97;;;25.20;41.20;;;;;;5116088;28;20444;-65
2022/03/27 13:48:52;;;;;;;15.83;10.27;;;25.00;38.60;;;;;;5115888;28;20448;-67
2022/03/27 13:51:20;;;;;;;13.10;9.73;;;24.90;41.50;;;;;;5115528;28;20978;-65
2022/03/27 13:53:47;;;;;;;15.23;10.17;;;24.90;38.30;;;;;;5115897;28;20452;-67
2022/03/27 13:56:14;;;;;;;13.00;8.63;;;24.90;39.90;;;;;;5116596;28;20440;-66
2022/03/27 13:58:41;;;;;;;12.33;9.03;;;24.80;39.20;;;;;;5116583;28;20444;-67
2022/03/27 14:01:07;;;;;;;12.00;9.23;;;24.70;38.60;;;;;;5116737;28;20476;-65
2022/03/27 14:03:34;;;;;;;15.20;9.63;;;24.80;41.10;;;;;;5116062;28;20437;-66
2022/03/27 14:06:01;;;;;;;13.03;8.90;;;24.80;38.60;;;;;;5116039;28;20547;-65
2022/03/27 14:08:30;;;;;;;13.83;9.27;;;24.60;37.10;;;;;;5115917;28;20475;-66
2022/03/27 14:10:57;;;;;;;17.80;10.40;;;24.70;38.40;;;;;;5115176;28;20564;-67
2022/03/27 14:13:24;;;;;;;9.53;8.50;;;24.80;39.80;;;;;;5116546;28;20453;-67
2022/03/27 14:15:51;;;;;;;17.03;8.93;;;24.90;39.00;;;;;;5115296;28;20966;-66
2022/03/27 14:18:18;;;;;;;10.73;8.73;;;25.00;40.00;;;;;;5115811;28;20460;-67
2022/03/27 14:20:45;;;;;;;11.50;9.00;;;25.00;39.00;;;;;;5115586;28;20472;-66
2022/03/27 14:23:11;;;;;;;11.90;9.50;;;25.00;41.30;;;;;;5115554;28;20455;-67
2022/03/27 14:25:40;;;;;;;11.10;7.60;;;25.00;38.20;;;;;;5115321;28;20852;-68
2022/03/27 14:28:07;;;;;;;12.77;9.13;;;24.90;40.40;;;;;;5115702;28;20457;-72
2022/03/27 14:30:35;;;;;;;14.13;8.93;;;24.70;37.30;;;;;;5115321;28;20461;-71
2022/03/27 14:33:02;;;;;;;13.30;9.27;;;24.30;39.80;;;;;;5115098;28;20465;-70
2022/03/27 14:35:29;;;;;;;9.43;8.07;;;24.30;40.80;;;;;;5115062;28;20476;-70
2022/03/27 14:37:55;;;;;;;8.60;7.70;;;24.40;41.90;;;;;;5115170;28;20453;-70
2022/03/27 14:40:22;;;;;;;10.70;8.67;;;24.30;39.90;;;;;;5115042;28;20455;-70
2022/03/27 14:42:50;;;;;;;17.60;9.20;;;24.20;38.80;;;;;;5114724;28;20451;-70
2022/03/27 14:45:17;;;;;;;16.00;10.20;;;24.30;41.20;;;;;;5114917;28;20452;-70
2022/03/27 14:47:44;;;;;;;11.00;8.73;;;24.40;39.60;;;;;;5115132;28;20943;-70
2022/03/27 14:50:14;;;;;;;11.90;8.87;;;24.40;40.30;;;;;;5115520;28;20479;-69
2022/03/27 14:52:42;;;;;;;8.10;7.13;;;24.50;38.20;;;;;;5114992;28;20436;-69
2022/03/27 14:57:58;;;;;;;9.47;8.47;;;24.40;39.10;;;;;;5115044;28;20494;-69
2022/03/27 15:00:25;;;;;;;11.97;8.40;;;24.20;39.30;;;;;;5114905;28;20460;-70
2022/03/27 15:02:52;;;;;;;10.83;8.30;;;24.20;40.40;;;;;;5114709;28;20905;-68
2022/03/27 15:05:18;;;;;;;9.33;8.40;;;24.20;39.20;;;;;;5114914;28;20485;-70
2022/03/27 15:07:45;;;;;;;10.70;9.53;;;24.10;40.20;;;;;;5115025;28;20452;-70
2022/03/27 15:10:12;;;;;;;13.90;9.37;;;24.10;38.80;;;;;;5115126;28;20447;-69
2022/03/27 15:12:39;;;;;;;14.77;9.40;;;24.10;38.50;;;;;;5114493;28;20469;-70
2022/03/27 15:15:09;;;;;;;13.73;8.37;;;24.20;38.30;;;;;;5114598;28;20469;-70
2022/03/27 15:17:36;;;;;;;16.00;8.73;;;24.10;40.00;;;;;;5114611;28;20459;-70
2022/03/27 15:20:04;;;;;;;17.20;8.90;;;24.10;40.20;;;;;;5114617;28;20488;-69
2022/03/27 15:22:31;;;;;;;10.73;7.70;;;24.10;38.10;;;;;;5114667;28;20472;-69
2022/03/27 15:24:58;;;;;;;10.10;8.87;;;24.00;37.80;;;;;;5114460;28;20449;-70
2022/03/27 15:27:24;;;;;;;10.13;7.90;;;23.80;37.90;;;;;;5114646;28;20463;-71
2022/03/27 15:29:51;;;;;;;10.70;8.40;;;23.70;38.10;;;;;;5114770;28;20479;-70
2022/03/27 15:32:19;;;;;;;9.67;8.20;;;23.70;39.50;;;;;;5114304;28;20567;-71
2022/03/27 15:34:46;;;;;;;15.40;9.10;;;23.70;38.10;;;;;;5114227;28;20986;-71
2022/03/27 15:37:13;;;;;;;12.87;8.60;;;23.50;39.70;;;;;;5114667;28;20484;-74
2022/03/27 15:39:40;;;;;;;16.13;8.43;;;23.60;38.60;;;;;;5114379;28;20491;-74
2022/03/27 15:42:07;;;;;;;12.97;8.60;;;23.60;39.10;;;;;;5114328;28;20469;-74
2022/03/27 15:44:34;;;;;;;12.47;7.80;;;23.60;38.20;;;;;;5114744;28;20452;-74
2022/03/27 15:47:01;;;;;;;12.33;8.87;;;23.60;37.80;;;;;;5114818;28;20464;-73
2022/03/27 15:49:30;;;;;;;11.17;8.07;;;23.50;38.50;;;;;;5115253;28;20811;-74
2022/03/27 15:51:57;;;;;;;10.87;8.30;;;23.50;37.60;;;;;;5114908;28;20472;-73
2022/03/27 15:54:24;;;;;;;13.37;9.33;;;23.30;38.40;;;;;;5116698;28;20489;-73
2022/03/27 15:56:51;;;;;;;10.67;8.30;;;23.10;37.30;;;;;;5119442;28;20448;-74
2022/03/27 15:59:18;;;;;;;14.20;10.20;;;23.00;38.80;;;;;;5118967;28;20813;-73
2022/03/27 16:01:45;;;;;;;14.83;9.37;;;22.70;38.10;;;;;;5118892;28;20508;-74
2022/03/27 16:04:12;;;;;;;14.80;9.47;;;22.70;37.00;;;;;;5119102;28;20801;-73
2022/03/27 16:06:41;;;;;;;10.90;9.10;;;22.40;37.30;;;;;;5119132;28;20479;-74
2022/03/27 16:09:08;;;;;;;12.70;8.73;;;22.40;38.30;;;;;;5118370;28;20460;-75
2022/03/27 16:11:36;;;;;;;17.10;7.03;;;22.30;39.80;;;;;;5118023;28;20468;-74
2022/03/27 16:14:04;;;;;;;14.80;7.97;;;22.20;44.60;;;;;;5118738;28;20880;-72
2022/03/27 16:16:31;;;;;;;11.50;8.43;;;22.10;41.40;;;;;;5118390;28;20429;-72
2022/03/27 16:18:58;;;;;;;23.27;10.10;;;22.00;38.90;;;;;;5117868;28;20449;-71
2022/03/27 16:21:26;;;;;;;13.57;8.60;;;21.80;40.50;;;;;;5118945;28;20468;-73
2022/03/27 16:23:55;;;;;;;11.03;8.20;;;21.80;39.50;;;;;;5118177;28;20896;-72
2022/03/27 16:26:22;;;;;;;9.80;8.03;;;21.60;39.40;;;;;;5118325;28;20448;-73
2022/03/27 16:28:49;;;;;;;11.40;7.77;;;21.50;39.70;;;;;;5118223;28;20456;-72
2022/03/27 16:31:16;;;;;;;10.90;7.80;;;21.40;39.60;;;;;;5118036;28;20468;-72
2022/03/27 16:33:43;;;;;;;12.57;7.73;;;21.30;39.80;;;;;;5117968;28;20513;-73
2022/03/27 16:36:09;;;;;;;8.50;7.70;;;21.20;40.80;;;;;;5118330;28;20476;-72
2022/03/27 16:38:36;;;;;;;11.60;7.53;;;21.10;40.50;;;;;;5118484;28;20456;-72
2022/03/27 16:41:04;;;;;;;11.50;8.30;;;21.00;40.60;;;;;;5118198;28;20478;-72
2022/03/27 16:43:31;;;;;;;8.87;7.93;;;20.90;41.70;;;;;;5118578;28;20459;-73
2022/03/27 16:45:58;;;;;;;13.10;8.67;;;20.90;40.80;;;;;;5118270;28;20452;-73
2022/03/27 16:48:25;;;;;;;15.13;8.13;;;20.80;40.60;;;;;;5117938;28;20448;-72
2022/03/27 16:50:52;;;;;;;14.23;8.53;;;20.70;41.90;;;;;;5117482;28;20476;-71
2022/03/27 16:53:19;;;;;;;10.67;8.17;;;20.70;42.20;;;;;;5118171;28;20452;-72
2022/03/27 16:55:47;;;;;;;13.00;8.20;;;20.60;42.00;;;;;;5117214;28;20525;-73
2022/03/27 16:58:15;;;;;;;10.70;8.90;;;20.50;42.50;;;;;;5117527;28;20459;-73
2022/03/27 17:00:42;;;;;;;8.47;7.43;;;20.40;42.30;;;;;;5117448;28;20571;-72
2022/03/27 17:03:09;;;;;;;10.07;8.33;;;20.30;42.40;;;;;;5117524;28;20455;-72
2022/03/27 17:05:35;;;;;;;10.00;7.63;;;20.30;42.90;;;;;;5116682;28;20947;-72
2022/03/27 17:08:02;;;;;;;11.23;8.37;;;20.20;43.70;;;;;;5117402;28;20445;-72
2022/03/27 17:10:30;;;;;;;9.80;7.80;;;20.10;44.40;;;;;;5117335;28;20453;-72
2022/03/27 17:12:56;;;;;;;8.43;6.90;;;20.10;43.90;;;;;;5117618;28;20546;-73
2022/03/27 17:15:25;;;;;;;8.20;7.10;;;20.00;44.30;;;;;;5116997;28;20472;-73
2022/03/27 17:17:52;;;;;;;16.20;8.97;;;19.90;43.80;;;;;;5117437;28;20452;-73
2022/03/27 17:20:19;;;;;;;11.60;7.17;;;19.80;43.90;;;;;;5117213;28;20832;-72
2022/03/27 17:22:46;;;;;;;7.80;7.00;;;19.80;44.60;;;;;;5117356;28;20961;-72
2022/03/27 17:25:13;;;;;;;8.47;6.20;;;19.70;44.20;;;;;;5117557;28;20451;-72
2022/03/27 17:27:40;;;;;;;9.70;7.40;;;19.60;44.40;;;;;;5117032;28;20448;-72
2022/03/27 17:30:10;;;;;;;12.83;8.40;;;19.50;45.20;;;;;;5117720;28;20565;-72
2022/03/27 17:32:38;;;;;;;8.90;6.67;;;19.40;46.10;;;;;;5116838;28;20484;-72
2022/03/27 17:35:07;;;;;;;9.90;7.63;;;19.30;47.50;;;;;;5117298;28;20480;-73
2022/03/27 17:37:34;;;;;;;9.10;6.63;;;19.20;47.90;;;;;;5116786;28;20498;-72
2022/03/27 17:40:01;;;;;;;11.27;8.47;;;19.10;47.90;;;;;;5116426;28;20452;-72
2022/03/27 17:42:28;;;;;;;8.57;7.53;;;19.00;47.10;;;;;;5116717;28;20468;-72
2022/03/27 17:44:55;;;;;;;10.07;7.87;;;18.90;47.80;;;;;;5116905;28;20449;-73
2022/03/27 17:47:22;;;;;;;15.10;7.30;;;18.80;48.00;;;;;;5117107;28;20449;-72
2022/03/27 17:49:50;;;;;;;11.73;7.87;;;18.60;48.00;;;;;;5116049;28;20814;-72
2022/03/27 17:52:17;;;;;;;11.17;7.77;;;18.50;48.10;;;;;;5116271;28;20895;-73
2022/03/27 17:54:44;;;;;;;10.27;8.07;;;18.40;48.10;;;;;;5116184;28;20942;-71
2022/03/27 17:57:11;;;;;;;11.03;7.87;;;18.30;48.20;;;;;;5116337;28;20478;-73
2022/03/27 17:59:38;;;;;;;18.37;8.00;;;18.10;49.30;;;;;;5116279;28;20543;-73
2022/03/27 18:02:05;;;;;;;9.10;7.00;;;18.10;49.30;;;;;;5115812;28;20476;-73
2022/03/27 18:04:32;;;;;;;7.37;6.67;;;17.90;48.80;;;;;;5116307;28;20814;-73
2022/03/27 18:07:01;;;;;;;11.20;7.90;;;17.80;48.60;;;;;;5116321;28;20449;-72
2022/03/27 18:09:28;;;;;;;12.40;7.90;;;17.70;48.80;;;;;;5116810;28;20487;-72
2022/03/27 18:11:56;;;;;;;11.43;7.47;;;17.60;49.30;;;;;;5117434;28;20468;-73
2022/03/27 18:14:24;;;;;;;10.00;7.90;;;17.50;50.20;;;;;;5117498;28;20455;-73
2022/03/27 18:16:51;;;;;;;11.70;8.23;;;17.40;50.20;;;;;;5115988;28;20991;-72
2022/03/27 18:19:18;;;;;;;9.73;7.10;;;17.30;49.90;;;;;;5116715;28;20456;-72
2022/03/27 18:21:45;;;;;;;14.50;8.50;;;17.20;50.40;;;;;;5116857;28;20472;-72
2022/03/27 18:24:13;;;;;;;8.83;7.40;;;17.10;50.10;;;;;;5116712;28;20448;-72
2022/03/27 18:26:40;;;;;;;14.37;8.37;;;17.00;49.80;;;;;;5116999;28;20449;-72
2022/03/27 18:29:07;;;;;;;14.23;9.17;;;16.90;49.80;;;;;;5116959;28;20452;-73
2022/03/27 18:31:33;;;;;;;11.23;8.40;;;16.90;50.40;;;;;;5118483;28;20468;-72
2022/03/27 18:34:00;;;;;;;14.77;8.73;;;16.80;49.90;;;;;;5117823;28;20440;-72
2022/03/27 18:36:29;;;;;;;11.93;8.40;;;16.70;49.80;;;;;;5119590;28;20476;-72
2022/03/27 18:38:56;;;;;;;10.40;8.80;;;16.70;51.20;;;;;;5118740;28;20947;-72
2022/03/27 18:41:24;;;;;;;11.07;8.97;;;16.60;51.20;;;;;;5118654;28;20475;-72
2022/03/27 18:43:51;;;;;;;14.53;8.20;;;16.60;51.10;;;;;;5118338;28;20452;-73
2022/03/27 18:46:18;;;;;;;10.00;8.83;;;16.50;51.20;;;;;;5117211;28;20451;-73
2022/03/27 18:48:46;;;;;;;9.70;8.30;;;16.40;51.30;;;;;;5118201;28;20467;-72
2022/03/27 18:51:14;;;;;;;10.57;8.53;;;16.40;51.50;;;;;;5117250;28;20504;-73
2022/03/27 18:53:42;;;;;;;13.97;9.47;;;16.30;51.80;;;;;;5116750;28;20455;-73
2022/03/27 18:56:08;;;;;;;;;;;16.30;52.10;;;;;;5116817;28;20477;-73
2022/03/27 18:58:37;;;;;;;13.50;9.80;;;16.20;52.60;;;;;;5117251;28;19931;-73
2022/03/27 19:01:04;;;;;;;;;;;16.10;52.90;;;;;;5118244;28;20469;-72
2022/03/27 19:03:31;;;;;;;;;;;16.10;53.20;;;;;;5118893;28;19919;-72
2022/03/27 19:05:57;;;;;;;;;;;16.00;53.60;;;;;;5118428;28;19926;-70
2022/03/27 19:08:24;;;;;;;;;;;16.00;53.80;;;;;;5118568;28;19923;-71
2022/03/27 19:10:51;;;;;;;;;;;15.90;54.10;;;;;;5118200;28;19924;-70
2022/03/27 19:13:18;;;;;;;;;;;15.90;54.30;;;;;;5117796;28;19923;-70
2022/03/27 19:15:46;;;;;;;;;;;15.80;54.90;;;;;;5118125;28;19924;-69
2022/03/27 19:18:17;;;;;;;;;;;15.80;55.10;;;;;;5118704;28;19931;-73
2022/03/27 19:20:44;;;;;;;;;;;15.80;61.70;;;;;;5117561;28;19987;-71
2022/03/27 19:23:12;;;;;;;;;;;15.80;59.00;;;;;;5117824;28;19924;-72
2022/03/27 19:25:40;;;;;;;;;;;15.90;57.30;;;;;;5117908;28;19963;-73
2022/03/27 19:28:08;;;;;;;;;;;15.90;56.90;;;;;;5117385;28;19924;-69
2022/03/27 19:30:35;;;;;;;;;;;15.90;56.90;;;;;;5116764;28;19923;-70
2022/03/27 19:33:03;;;;;;;;;;;15.80;56.90;;;;;;5116130;28;20374;-71
2022/03/27 19:35:29;;;;;;;;;;;15.80;57.20;;;;;;5117403;28;19930;-70
2022/03/27 19:37:57;;;;;;;;;;;15.70;57.40;;;;;;5117084;28;19985;-71
2022/03/27 19:40:23;;;;;;;;;;;15.70;57.70;;;;;;5116951;28;19924;-71
2022/03/27 19:42:51;;;;;;;;;;;15.60;57.90;;;;;;5117497;28;19924;-70
2022/03/27 19:45:20;;;;;;;;;;;15.50;58.10;;;;;;5117120;28;20514;-70
2022/03/27 19:47:47;;;;;;;;;;;15.50;58.30;;;;;;5117650;28;19962;-70
2022/03/27 19:50:15;;;;;;;;;;;15.40;58.80;;;;;;5115175;28;19931;-71
2022/03/27 19:52:42;;;;;;;;;;;15.40;58.90;;;;;;5114562;28;20375;-70
2022/03/27 19:55:10;;;;;;;;;;;15.30;59.10;;;;;;5115497;28;19931;-73
2022/03/27 19:57:36;;;;;;;;;;;15.30;59.30;;;;;;5115421;28;19981;-71
2022/03/27 20:00:05;;;;;;;;;;;15.30;59.50;;;;;;5115789;28;20271;-70
2022/03/27 20:02:31;;;;;;;;;;;15.30;59.80;;;;;;5115373;28;20345;-71
2022/03/27 20:04:58;;;;;;;;;;;15.20;59.80;;;;;;5115122;28;19977;-70
2022/03/27 20:07:26;;;;;;;;;;;15.20;59.90;;;;;;5115197;28;19924;-70
2022/03/27 20:09:53;;;;;;;;;;;15.10;60.50;;;;;;5114679;28;19924;-70
2022/03/27 20:12:19;;;;;;;;;;;15.10;60.30;;;;;;5114075;28;20303;-70
2022/03/27 20:14:46;;;;;;;;;;;15.10;60.60;;;;;;5114298;28;19935;-69
2022/03/27 20:17:13;;;;;;;;;;;15.10;61.10;;;;;;5114409;28;19977;-70
2022/03/27 20:19:39;;;;;;;;;;;15.00;61.30;;;;;;5113925;28;20370;-69
2022/03/27 20:22:06;;;;;;;;;;;15.00;61.60;;;;;;5114387;28;20411;-72
2022/03/27 20:24:34;;;;;;;;;;;15.00;61.60;;;;;;5114127;28;19932;-68
2022/03/27 20:27:00;;;;;;;;;;;15.00;61.70;;;;;;5114103;28;19931;-69
2022/03/27 20:29:27;;;;;;;;;;;15.00;61.20;;;;;;5114216;28;19924;-69
2022/03/27 20:31:54;;;;;;;;;;;14.90;61.10;;;;;;5114195;28;20371;-69
2022/03/27 20:34:20;;;;;;;;;;;14.90;61.50;;;;;;5114202;28;19928;-69
2022/03/27 20:36:47;;;;;;;;;;;14.80;61.20;;;;;;5113830;28;19928;-69
2022/03/27 20:39:14;;;;;;;;;;;14.80;61.10;;;;;;5114124;28;19931;-69
2022/03/27 20:41:42;;;;;;;;;;;14.80;61.30;;;;;;5117941;28;19931;-69